createdAt,value
2023-02-24T00:04:20.422Z,69.48
2023-02-24T00:09:27.425Z,68.46
2023-02-24T00:14:33.296Z,69.67
2023-02-24T00:19:37.296Z,68.02
2023-02-24T00:24:40.134Z,69.00
2023-02-24T00:29:47.748Z,65.90
2023-02-24T00:34:50.540Z,64.62
2023-02-24T00:39:57.485Z,67.93
2023-02-24T00:45:07.679Z,64.88
2023-02-24T00:50:14.098Z,66.05
2023-02-24T00:55:19.194Z,65.20
2023-02-24T01:00:24.268Z,67.79
2023-02-24T01:05:28.001Z,67.31
2023-02-24T01:10:30.743Z,64.85
2023-02-24T01:15:34.871Z,65.46
2023-02-24T01:20:38.563Z,62.94
2023-02-24T01:25:47.779Z,63.55
2023-02-24T01:30:52.493Z,63.05
2023-02-24T01:35:55.738Z,64.21
2023-02-24T01:40:59.277Z,64.04
2023-02-24T01:46:03.447Z,65.24
2023-02-24T01:51:08.299Z,62.71
2023-02-24T01:56:13.744Z,62.76
2023-02-24T02:01:20.419Z,63.90
2023-02-24T02:06:23.450Z,62.06
2023-02-24T02:11:27.325Z,62.36
2023-02-24T02:16:47.669Z,61.58
2023-02-24T02:22:08.142Z,61.67
2023-02-24T02:27:34.871Z,63.28
2023-02-24T02:33:09.485Z,63.35
2023-02-24T02:38:25.902Z,64.83
2023-02-24T02:43:33.470Z,64.91
2023-02-24T02:48:44.069Z,62.94
2023-02-24T02:53:57.002Z,65.25
2023-02-24T02:59:01.724Z,62.29
2023-02-24T03:04:08.345Z,63.87
2023-02-24T03:09:19.418Z,64.71
2023-02-24T03:14:29.245Z,62.31
2023-02-24T03:19:37.316Z,61.07
2023-02-24T03:24:42.211Z,60.88
2023-02-24T03:29:53.751Z,61.92
2023-02-24T03:35:00.866Z,59.51
2023-02-24T03:40:11.907Z,60.81
2023-02-24T03:45:16.745Z,60.68
2023-02-24T03:50:21.918Z,60.29
2023-02-24T03:55:45.534Z,59.75
2023-02-24T04:00:57.129Z,63.90
2023-02-24T04:06:13.810Z,61.42
2023-02-24T04:11:26.620Z,63.94
2023-02-24T04:16:39.971Z,63.62
2023-02-24T04:21:48.371Z,64.33
2023-02-24T04:27:02.124Z,64.37
2023-02-24T04:32:12.511Z,65.32
2023-02-24T04:37:16.068Z,66.09
2023-02-24T04:42:22.275Z,64.80
2023-02-24T04:47:25.053Z,67.80
2023-02-24T04:52:27.787Z,69.50
2023-02-24T04:57:37.551Z,68.53
2023-02-24T05:02:40.326Z,68.12
2023-02-24T05:07:47.466Z,67.27
2023-02-24T05:12:51.687Z,69.54
2023-02-24T05:17:54.512Z,69.70
2023-02-24T05:22:57.541Z,69.10
2023-02-24T05:28:03.997Z,67.35
2023-02-24T05:33:08.087Z,68.22
2023-02-24T05:38:11.574Z,72.98
2023-02-24T05:43:18.620Z,69.91
2023-02-24T05:48:21.892Z,68.29
2023-02-24T05:53:24.624Z,68.27
2023-02-24T05:58:29.357Z,70.04
2023-02-24T06:03:35.525Z,70.70
2023-02-24T06:08:49.120Z,69.87
2023-02-24T06:13:57.756Z,73.56
2023-02-24T06:19:41.653Z,75.01
2023-02-24T06:24:45.261Z,73.91
2023-02-24T06:29:51.844Z,76.32
2023-02-24T06:34:55.463Z,77.89
2023-02-24T06:39:58.655Z,79.55
2023-02-24T06:45:02.840Z,81.82
2023-02-24T06:50:07.686Z,82.04
2023-02-24T06:55:25.251Z,81.07
2023-02-24T07:00:37.954Z,82.90
2023-02-24T07:05:40.776Z,81.41
2023-02-24T07:10:43.635Z,84.92
2023-02-24T07:15:49.762Z,91.08
2023-02-24T07:20:52.463Z,93.34
2023-02-24T07:25:58.424Z,90.21
2023-02-24T07:31:08.368Z,89.25
2023-02-24T07:36:14.933Z,90.53
2023-02-24T07:41:19.840Z,87.49
2023-02-24T07:46:26.410Z,86.66
2023-02-24T07:51:29.866Z,90.40
2023-02-24T07:56:32.882Z,89.85
2023-02-24T08:01:39.768Z,85.84
2023-02-24T08:06:47.862Z,86.73
2023-02-24T08:11:52.368Z,88.63
2023-02-24T08:16:59.319Z,91.51
2023-02-24T08:22:49.405Z,88.91
2023-02-24T08:29:19.897Z,88.29
2023-02-24T08:49:32.077Z,86.25
2023-02-24T09:14:44.686Z,88.69
2023-02-24T09:20:19.285Z,86.81
2023-02-24T09:25:23.929Z,85.60
2023-02-24T09:30:39.271Z,86.25
2023-02-24T09:35:43.183Z,85.72
2023-02-24T09:40:52.770Z,84.94
2023-02-24T09:46:01.885Z,89.06
2023-02-24T09:57:55.783Z,86.01
2023-02-24T10:03:55.123Z,85.24
2023-02-24T10:09:11.452Z,83.73
2023-02-24T10:14:19.428Z,83.07
2023-02-24T10:19:28.083Z,89.00
2023-02-24T10:24:37.564Z,85.46
2023-02-24T10:30:01.141Z,88.33
2023-02-24T10:35:06.780Z,86.38
2023-02-24T10:40:10.763Z,87.47
2023-02-24T10:45:18.276Z,87.83
2023-02-24T10:50:25.212Z,87.55
2023-02-24T10:55:53.434Z,84.48
2023-02-24T11:01:13.314Z,82.48
2023-02-24T11:06:52.533Z,84.37
2023-02-24T11:12:15.229Z,87.66
2023-02-24T11:17:26.881Z,86.59
2023-02-24T11:22:36.538Z,85.20
2023-02-24T11:27:42.954Z,84.42
2023-02-24T11:33:17.283Z,84.68
2023-02-24T11:38:33.044Z,82.71
2023-02-24T11:43:40.883Z,82.11
2023-02-24T11:48:48.042Z,84.72
2023-02-24T11:53:55.743Z,84.40
2023-02-24T11:59:05.348Z,83.66
2023-02-24T12:04:18.670Z,79.64
2023-02-24T12:09:27.723Z,75.55
2023-02-24T12:14:36.278Z,77.05
2023-02-24T12:19:52.435Z,77.30
2023-02-24T12:24:56.627Z,80.05
2023-02-24T12:45:04.668Z,78.02
2023-02-24T12:50:26.022Z,76.96
2023-02-24T12:55:34.494Z,79.32
2023-02-24T13:07:28.743Z,76.65
2023-02-24T13:12:40.560Z,78.59
2023-02-24T13:17:51.568Z,77.02
2023-02-24T13:22:56.476Z,74.79
2023-02-24T13:28:02.405Z,73.93
2023-02-24T13:33:20.922Z,80.91
2023-02-24T13:38:36.512Z,80.68
2023-02-24T13:43:39.330Z,83.11
2023-02-24T13:48:51.698Z,88.51
2023-02-24T13:54:11.188Z,89.46
2023-02-24T13:59:42.502Z,82.44
2023-02-24T14:04:48.244Z,79.58
2023-02-24T14:09:57.518Z,79.78
2023-02-24T14:15:00.806Z,80.05
2023-02-24T14:20:15.704Z,82.16
2023-02-24T14:25:27.402Z,84.84
2023-02-24T14:30:53.416Z,85.09
2023-02-24T14:35:56.782Z,87.45
2023-02-24T14:41:01.025Z,83.76
2023-02-24T14:46:07.142Z,83.24
2023-02-24T14:51:16.421Z,80.14
2023-02-24T14:56:25.587Z,85.05
2023-02-24T15:01:34.599Z,85.56
2023-02-24T15:06:40.834Z,89.67
2023-02-24T15:11:45.503Z,87.95
2023-02-24T15:16:50.841Z,90.61
2023-02-24T15:21:53.940Z,89.70
2023-02-24T15:26:59.881Z,84.14
2023-02-24T15:32:07.190Z,83.56
2023-02-24T15:37:16.351Z,85.88
2023-02-24T15:42:28.191Z,84.94
2023-02-24T15:47:43.021Z,88.47
2023-02-24T15:52:46.390Z,84.86
2023-02-24T15:57:58.746Z,84.23
2023-02-24T16:03:01.539Z,84.10
2023-02-24T16:08:04.775Z,84.71
2023-02-24T16:13:17.413Z,83.92
2023-02-24T16:18:22.796Z,85.00
2023-02-24T16:23:27.155Z,78.60
2023-02-24T16:28:33.054Z,81.46
2023-02-24T16:33:51.924Z,83.37
2023-02-24T16:38:56.398Z,83.12
2023-02-24T16:44:00.527Z,86.02
2023-02-24T16:49:03.519Z,83.39
2023-02-24T16:54:06.325Z,86.19
2023-02-24T16:59:10.725Z,85.23
2023-02-24T17:04:14.262Z,84.05
2023-02-24T17:09:17.990Z,83.66
2023-02-24T17:14:22.195Z,82.86
2023-02-24T17:19:24.959Z,84.22
2023-02-24T17:24:28.462Z,83.56
2023-02-24T17:30:28.461Z,81.36
2023-02-24T17:36:31.436Z,81.27
2023-02-24T17:42:04.855Z,82.84
2023-02-24T17:47:09.376Z,80.86
2023-02-24T17:52:12.360Z,80.29
2023-02-24T17:57:15.217Z,79.60
2023-02-24T18:02:19.963Z,82.62
2023-02-24T18:07:22.885Z,81.01
2023-02-24T18:12:25.888Z,82.84
2023-02-24T18:17:30.267Z,82.22
2023-02-24T18:22:33.721Z,83.85
2023-02-24T18:27:36.538Z,82.35
2023-02-24T18:32:44.527Z,82.07
2023-02-24T18:37:48.848Z,81.21
2023-02-24T18:42:52.065Z,81.53
2023-02-24T18:47:56.314Z,85.77
2023-02-24T18:52:59.050Z,86.42
2023-02-24T18:58:01.813Z,86.91
2023-02-24T19:03:06.049Z,84.13
2023-02-24T19:08:08.861Z,78.34
2023-02-24T19:13:12.246Z,79.94
2023-02-24T19:18:16.951Z,79.86
2023-02-24T19:23:19.752Z,79.00
2023-02-24T19:28:22.640Z,79.38
2023-02-24T19:33:27.557Z,80.03
2023-02-24T19:38:30.569Z,80.03
2023-02-24T19:43:33.396Z,82.26
2023-02-24T19:48:37.661Z,87.36
2023-02-24T19:53:42.010Z,87.05
2023-02-24T19:58:45.035Z,85.12
2023-02-24T20:03:50.214Z,83.81
2023-02-24T20:08:53.749Z,83.35
2023-02-24T20:13:57.010Z,82.95
2023-02-24T20:19:01.899Z,81.82
2023-02-24T20:24:06.918Z,82.32
2023-02-24T20:29:11.217Z,82.29
2023-02-24T20:34:16.669Z,82.29
2023-02-24T20:39:24.664Z,81.93
2023-02-24T20:44:27.619Z,82.31
2023-02-24T20:49:34.442Z,83.44
2023-02-24T20:54:37.305Z,84.83
2023-02-24T20:59:47.321Z,84.16
2023-02-24T21:04:59.397Z,82.81
2023-02-24T21:10:02.296Z,82.87
2023-02-24T21:15:06.320Z,83.07
2023-02-24T21:20:12.507Z,81.29
2023-02-24T21:25:15.300Z,79.33
2023-02-24T21:30:18.376Z,75.76
2023-02-24T21:35:22.783Z,73.37
2023-02-24T21:40:25.603Z,71.77
2023-02-24T21:45:28.924Z,71.75
2023-02-24T21:50:33.125Z,69.94
2023-02-24T21:55:36.983Z,70.88
2023-02-24T22:00:39.902Z,70.77
2023-02-24T22:05:49.945Z,68.89
2023-02-24T22:10:59.480Z,67.70
2023-02-24T22:16:02.896Z,66.83
2023-02-24T22:21:13.639Z,66.49
2023-02-24T22:26:17.724Z,67.92
2023-02-24T22:31:22.692Z,68.39
2023-02-24T22:36:29.152Z,68.67
2023-02-24T22:41:34.607Z,69.66
2023-02-24T22:46:39.129Z,69.75
2023-02-24T22:51:43.666Z,69.83
2023-02-24T22:56:46.583Z,69.14
2023-02-24T23:01:49.340Z,68.77
2023-02-24T23:06:55.119Z,66.97
2023-02-24T23:11:58.167Z,66.98
2023-02-24T23:17:00.894Z,68.27
2023-02-24T23:22:05.933Z,68.68
2023-02-24T23:27:09.821Z,67.63
2023-02-24T23:32:12.687Z,66.90
2023-02-24T23:37:17.067Z,68.80
2023-02-24T23:42:23.212Z,70.26
2023-02-24T23:47:26.719Z,69.97
2023-02-24T23:52:30.955Z,70.62
2023-02-24T23:57:34.280Z,68.33
